Time;durP1;ratioP1;P1;durP2;ratioP2;P2;SDS_P1;SDS_P2;PMS_P1;PMS_P2;Temp;Humidity;BMP_temperature;BMP_pressure;BME280_temperature;BME280_humidity;BME280_pressure;Samples;Min_cycle;Max_cycle;Signal;HPM_P1;HPM_P2
2022/10/15 00:02:06;;;;;;;18.80;16.40;;;;;;;10.40;100.00;100762.13;5053333;28;20083;-35
2022/10/15 00:04:32;;;;;;;24.35;16.70;;;;;;;10.41;100.00;100760.25;5053876;28;20098;-35
2022/10/15 00:06:58;;;;;;;19.50;17.35;;;;;;;10.44;100.00;100765.16;5053949;28;20021;-35
2022/10/15 00:09:23;;;;;;;20.15;17.95;;;;;;;10.40;100.00;100766.72;5053667;28;20031;-35
2022/10/15 00:11:48;;;;;;;17.67;15.83;;;;;;;10.27;100.00;100751.50;5054139;28;20044;-35
2022/10/15 00:14:14;;;;;;;23.03;16.90;;;;;;;10.29;100.00;100754.78;5053831;28;20651;-35
2022/10/15 00:16:39;;;;;;;18.02;16.13;;;;;;;10.34;100.00;100765.72;5053505;28;20503;-35
2022/10/15 00:19:05;;;;;;;17.77;15.97;;;;;;;10.35;100.00;100758.47;5053795;28;20036;-35
2022/10/15 00:21:30;;;;;;;19.33;17.33;;;;;;;10.33;100.00;100758.69;5053301;28;20099;-35
2022/10/15 00:23:56;;;;;;;18.73;16.83;;;;;;;10.30;100.00;100764.56;5053702;28;20051;-35
2022/10/15 00:26:27;;;;;;;17.98;16.20;;;;;;;10.26;100.00;100756.09;5053505;28;20048;-35
2022/10/15 00:28:55;;;;;;;19.05;15.50;;;;;;;10.35;100.00;100770.09;5053259;28;20025;-35
2022/10/15 00:31:23;;;;;;;18.20;16.13;;;;;;;10.29;100.00;100752.09;5052791;28;20469;-35
2022/10/15 00:33:49;;;;;;;17.63;14.70;;;;;;;10.38;100.00;100753.41;5053182;28;20051;-35
2022/10/15 00:36:18;;;;;;;18.77;16.65;;;;;;;10.42;100.00;100772.69;5053129;28;20039;-35
2022/10/15 00:38:44;;;;;;;18.75;16.50;;;;;;;10.46;100.00;100772.00;5053318;28;20377;-35
2022/10/15 00:41:14;;;;;;;20.58;18.33;;;;;;;10.55;100.00;100757.09;5053419;28;20041;-35
2022/10/15 00:43:42;;;;;;;23.67;20.00;;;;;;;10.64;100.00;100759.44;5053413;28;20091;-35
2022/10/15 00:46:36;;;;;;;21.77;18.33;;;;;;;10.68;100.00;100766.84;5052858;28;20021;-35
2022/10/15 00:49:34;;;;;;;20.80;18.60;;;;;;;10.50;100.00;100735.34;5050258;28;20037;-35
2022/10/15 00:52:00;;;;;;;;;;;;;;;10.76;100.00;100771.91;5053761;28;20048;-35
2022/10/15 00:54:30;;;;;;;20.03;17.73;;;;;;;10.76;100.00;100769.22;5052798;28;19932;-35
2022/10/15 00:56:56;;;;;;;22.35;19.23;;;;;;;10.78;100.00;100760.84;5053276;28;20067;-35
2022/10/15 00:59:25;;;;;;;22.60;18.60;;;;;;;10.69;100.00;100762.28;5052903;28;20033;-35
2022/10/15 01:01:51;;;;;;;22.42;19.25;;;;;;;10.71;100.00;100769.09;5052661;28;20032;-35
2022/10/15 01:04:17;;;;;;;;;;;;;;;10.81;100.00;100758.53;5053032;28;20485;-35
2022/10/15 01:06:43;;;;;;;23.37;20.03;;;;;;;10.81;100.00;100765.81;5052608;28;19959;-35
2022/10/15 01:09:09;;;;;;;24.23;20.00;;;;;;;10.86;100.00;100757.81;5053012;28;20287;-35
2022/10/15 01:11:48;;;;;;;21.15;18.88;;;;;;;10.88;100.00;100762.97;5052552;28;20037;-35
2022/10/15 01:14:28;;;;;;;25.67;21.13;;;;;;;10.95;100.00;100763.72;5052714;28;20025;-35
2022/10/15 01:17:03;;;;;;;22.80;19.45;;;;;;;10.94;100.00;100757.47;5052904;28;20029;-35
2022/10/15 01:19:37;;;;;;;25.08;21.05;;;;;;;10.94;100.00;100751.25;5052749;28;20031;-35
2022/10/15 01:22:23;;;;;;;29.45;23.73;;;;;;;11.05;100.00;100745.81;5052048;28;20429;-35
2022/10/15 01:24:48;;;;;;;24.60;21.35;;;;;;;11.06;100.00;100738.50;5052669;28;20036;-35
2022/10/15 01:27:24;;;;;;;23.53;20.40;;;;;;;11.09;100.00;100736.16;5052623;28;20037;-35
2022/10/15 01:30:17;;;;;;;25.80;22.17;;;;;;;11.14;100.00;100729.22;5052770;28;20102;-35
2022/10/15 01:32:52;;;;;;;25.83;21.52;;;;;;;11.19;100.00;100726.63;5052172;28;20025;-35
2022/10/15 01:35:46;;;;;;;23.38;20.92;;;;;;;11.26;100.00;100730.00;5053142;28;20025;-35
2022/10/15 01:38:30;;;;;;;23.80;21.20;;;;;;;11.28;100.00;100726.03;5052859;28;20392;-35
2022/10/15 01:40:58;;;;;;;26.30;22.45;;;;;;;11.31;100.00;100724.72;5052599;28;20025;-35
2022/10/15 01:43:32;;;;;;;22.92;20.63;;;;;;;11.24;100.00;100722.16;5052216;28;20055;-35
2022/10/15 01:46:02;;;;;;;24.60;21.10;;;;;;;11.35;100.00;100731.28;5052630;28;20098;-35
2022/10/15 01:48:31;;;;;;;25.27;22.65;;;;;;;11.38;100.00;100730.84;5053063;28;20044;-35
2022/10/15 01:51:03;;;;;;;24.65;21.85;;;;;;;11.44;100.00;100734.47;5052198;28;20111;-35
2022/10/15 01:53:33;;;;;;;24.67;21.67;;;;;;;11.47;100.00;100729.41;5052208;28;20047;-35
2022/10/15 01:56:03;;;;;;;23.25;20.85;;;;;;;11.43;100.00;100728.22;5051733;28;20033;-35
2022/10/15 01:58:29;;;;;;;24.95;21.33;;;;;;;11.52;100.00;100734.09;5052356;28;20457;-35
2022/10/15 02:00:57;;;;;;;24.75;22.15;;;;;;;11.47;100.00;100717.75;5052231;28;20025;-35
2022/10/15 02:03:22;;;;;;;24.33;21.73;;;;;;;11.53;100.00;100720.31;5052799;28;20380;-35
2022/10/15 02:05:53;;;;;;;24.33;21.30;;;;;;;11.52;100.00;100720.56;5051837;28;20045;-35
2022/10/15 02:08:35;;;;;;;23.02;20.52;;;;;;;11.55;100.00;100723.59;5052182;28;20483;-35
2022/10/15 02:11:12;;;;;;;26.02;21.77;;;;;;;11.57;100.00;100702.53;5051781;28;20036;-35
2022/10/15 02:13:58;;;;;;;24.23;21.40;;;;;;;11.60;100.00;100712.03;5052358;28;20124;-35
2022/10/15 02:16:51;;;;;;;23.10;20.67;;;;;;;11.56;100.00;100700.84;5051940;28;20385;-35
2022/10/15 02:19:19;;;;;;;21.85;19.65;;;;;;;11.64;100.00;100707.78;5052291;28;20222;-35
2022/10/15 02:21:52;;;;;;;22.73;20.40;;;;;;;11.60;100.00;100693.91;5051988;28;20032;-35
2022/10/15 02:24:24;;;;;;;23.92;21.33;;;;;;;11.69;100.00;100704.34;5053428;28;20029;-35
2022/10/15 02:26:52;;;;;;;24.92;21.67;;;;;;;11.69;100.00;100693.53;5055317;28;20068;-35
2022/10/15 02:29:21;;;;;;;22.67;20.33;;;;;;;11.57;100.00;100683.56;5055737;28;20033;-35
2022/10/15 02:31:48;;;;;;;22.95;20.75;;;;;;;11.67;100.00;100701.09;5055532;28;20055;-35
2022/10/15 02:34:20;;;;;;;23.45;21.10;;;;;;;11.68;100.00;100697.31;5055521;28;20029;-35
2022/10/15 02:36:46;;;;;;;24.08;21.60;;;;;;;11.68;100.00;100689.19;5055296;28;20029;-35
2022/10/15 02:39:17;;;;;;;23.27;20.88;;;;;;;11.66;100.00;100689.41;5055066;28;20388;-35
2022/10/15 02:41:44;;;;;;;22.65;20.35;;;;;;;11.64;100.00;100680.69;5055493;28;20104;-35
2022/10/15 02:44:10;;;;;;;23.88;21.42;;;;;;;11.62;100.00;100665.78;5055132;28;20086;-35
2022/10/15 02:46:35;;;;;;;23.13;20.77;;;;;;;11.65;100.00;100676.09;5055269;28;20033;-35
2022/10/15 02:49:00;;;;;;;23.33;20.93;;;;;;;11.64;100.00;100669.06;5055125;28;20264;-35
2022/10/15 02:51:26;;;;;;;23.00;20.73;;;;;;;11.59;100.00;100672.47;5055333;28;20027;-35
2022/10/15 02:53:51;;;;;;;23.37;20.33;;;;;;;11.64;100.00;100660.91;5054866;28;20033;-35
2022/10/15 02:56:16;;;;;;;22.80;20.30;;;;;;;11.64;100.00;100660.91;5037103;28;20041;-35
2022/10/15 02:58:42;;;;;;;24.08;20.63;;;;;;;11.64;100.00;100659.03;5055189;28;20033;-35
2022/10/15 03:01:07;;;;;;;23.20;20.77;;;;;;;11.65;100.00;100655.25;5054952;28;20024;-35
2022/10/15 03:03:32;;;;;;;22.80;19.90;;;;;;;11.65;100.00;100647.13;5055002;28;20064;-35
2022/10/15 03:05:58;;;;;;;23.30;20.77;;;;;;;11.66;100.00;100645.25;5054827;28;20025;-35
2022/10/15 03:08:23;;;;;;;22.83;20.63;;;;;;;11.65;100.00;100643.59;5054539;28;20255;-35
2022/10/15 03:10:49;;;;;;;22.87;20.47;;;;;;;11.63;100.00;100637.63;5054987;28;20492;-35
2022/10/15 03:13:14;;;;;;;23.27;20.88;;;;;;;11.66;100.00;100639.81;5055034;28;20283;-35
2022/10/15 03:15:40;;;;;;;23.80;21.30;;;;;;;11.66;100.00;100645.25;5054593;28;20516;-35
2022/10/15 03:18:06;;;;;;;24.20;21.57;;;;;;;11.63;100.00;100640.31;5054405;28;20029;-35
2022/10/15 03:20:32;;;;;;;23.92;21.48;;;;;;;11.65;100.00;100649.00;5054323;28;20114;-35
2022/10/15 03:22:57;;;;;;;23.98;21.48;;;;;;;11.66;100.00;100653.38;5054953;28;20390;-35
2022/10/15 03:25:22;;;;;;;23.60;21.30;;;;;;;11.64;100.00;100648.19;5055034;28;20028;-35
2022/10/15 03:27:48;;;;;;;23.73;20.93;;;;;;;11.65;100.00;100655.25;5054779;28;20040;-35
2022/10/15 03:30:13;;;;;;;23.23;20.80;;;;;;;11.54;100.00;100651.53;5054370;28;20029;-35
2022/10/15 03:32:38;;;;;;;27.50;22.67;;;;;;;11.60;100.00;100652.44;5054900;28;20473;-35
2022/10/15 03:35:04;;;;;;;24.43;21.90;;;;;;;11.59;100.00;100656.22;5036437;28;20757;-35
2022/10/15 03:37:30;;;;;;;25.23;21.88;;;;;;;11.60;100.00;100652.44;5054490;28;20025;-35
2022/10/15 03:39:55;;;;;;;22.75;20.42;;;;;;;11.56;100.00;100637.75;5053960;28;20021;-35
2022/10/15 03:42:21;;;;;;;23.63;21.17;;;;;;;11.60;100.00;100647.03;5054127;28;20370;-35
2022/10/15 03:44:46;;;;;;;23.67;20.90;;;;;;;11.62;100.00;100647.63;5053973;28;20033;-35
2022/10/15 03:47:12;;;;;;;26.15;23.45;;;;;;;11.60;100.00;100644.31;5053846;28;20536;-35
2022/10/15 03:49:37;;;;;;;24.80;22.30;;;;;;;11.63;100.00;100637.63;5054072;28;20032;-34
2022/10/15 03:52:02;;;;;;;28.50;23.03;;;;;;;11.63;100.00;100633.03;5054706;28;20025;-35
2022/10/15 03:54:27;;;;;;;24.93;22.37;;;;;;;11.62;100.00;100636.81;5054192;28;20373;-35
2022/10/15 03:56:53;;;;;;;25.67;22.97;;;;;;;11.64;100.00;100626.53;5053983;28;20068;-35
2022/10/15 03:59:18;;;;;;;24.83;21.97;;;;;;;11.66;100.00;100631.69;5053863;28;20496;-35
2022/10/15 04:01:44;;;;;;;24.35;21.25;;;;;;;11.64;100.00;100628.41;5053648;28;20064;-35
2022/10/15 04:04:12;;;;;;;24.30;21.67;;;;;;;11.64;100.00;100634.66;5054255;28;20072;-35
2022/10/15 04:06:37;;;;;;;25.83;22.83;;;;;;;11.63;100.00;100619.47;5053692;28;20039;-35
2022/10/15 04:09:03;;;;;;;25.65;22.88;;;;;;;11.60;100.00;100626.19;5053671;28;20033;-35
2022/10/15 04:11:28;;;;;;;25.60;22.20;;;;;;;11.54;100.00;100629.06;5053476;28;20041;-35
2022/10/15 04:13:53;;;;;;;24.50;21.83;;;;;;;11.60;100.00;100639.72;5053788;28;20033;-35
2022/10/15 04:16:19;;;;;;;25.77;22.70;;;;;;;11.58;100.00;100638.34;5053277;28;20064;-35
2022/10/15 04:18:44;;;;;;;25.03;22.13;;;;;;;11.59;100.00;100643.50;5053582;28;20410;-35
2022/10/15 04:21:09;;;;;;;26.33;21.57;;;;;;;11.59;100.00;100643.50;5053400;28;20279;-35
2022/10/15 04:23:35;;;;;;;30.57;23.33;;;;;;;11.57;100.00;100632.09;5053869;28;20031;-35
2022/10/15 04:26:00;;;;;;;31.67;23.90;;;;;;;11.58;100.00;100639.16;5053629;28;20044;-35
2022/10/15 04:28:27;;;;;;;25.17;22.15;;;;;;;11.67;100.00;100658.56;5035254;28;20033;-35
2022/10/15 04:30:56;;;;;;;;;;;;;;;11.70;100.00;100654.53;5053906;28;20081;-35
2022/10/15 04:33:21;;;;;;;30.20;23.65;;;;;;;11.72;100.00;100652.41;5053646;28;19909;-35
2022/10/15 04:35:46;;;;;;;30.33;23.47;;;;;;;11.75;100.00;100647.31;5052889;28;20031;-35
2022/10/15 04:38:12;;;;;;;31.13;25.57;;;;;;;11.78;100.00;100643.31;5053236;28;20033;-35
2022/10/15 04:40:38;;;;;;;33.40;27.33;;;;;;;11.79;100.00;100640.34;5053033;28;20025;-35
2022/10/15 04:43:03;;;;;;;39.53;27.23;;;;;;;11.81;100.00;100635.53;5053418;28;20068;-35
2022/10/15 04:45:28;;;;;;;34.75;27.25;;;;;;;11.91;100.00;100644.91;5052904;28;20032;-35
2022/10/15 04:47:55;;;;;;;36.43;28.20;;;;;;;11.89;100.00;100637.03;5053053;28;20076;-35
2022/10/15 04:50:21;;;;;;;41.45;30.17;;;;;;;11.93;100.00;100640.91;5052937;28;20036;-35
2022/10/15 04:52:47;;;;;;;40.50;28.70;;;;;;;11.98;100.00;100640.16;5052702;28;20028;-35
2022/10/15 04:55:12;;;;;;;36.85;27.98;;;;;;;11.98;100.00;100637.44;5034988;28;20060;-35
2022/10/15 04:57:38;;;;;;;38.38;28.25;;;;;;;11.99;100.00;100634.50;5053440;28;20078;-35
2022/10/15 05:00:05;;;;;;;38.30;27.65;;;;;;;12.01;100.00;100643.22;5052513;28;20108;-35
2022/10/15 05:02:31;;;;;;;38.00;28.20;;;;;;;12.02;100.00;100642.13;5052385;28;20063;-35
2022/10/15 05:04:57;;;;;;;36.30;26.83;;;;;;;12.04;100.00;100640.00;5052691;28;20037;-35
2022/10/15 05:07:22;;;;;;;37.17;27.45;;;;;;;12.03;100.00;100640.25;5052415;28;20108;-35
2022/10/15 05:09:47;;;;;;;35.40;26.70;;;;;;;12.06;100.00;100634.34;5052448;28;20029;-35
2022/10/15 05:12:12;;;;;;;37.00;26.33;;;;;;;12.08;100.00;100638.44;5068584;28;20029;-35
2022/10/15 05:14:38;;;;;;;33.23;26.30;;;;;;;12.02;100.00;100633.19;5052413;28;20108;-35
2022/10/15 05:17:03;;;;;;;33.77;26.43;;;;;;;12.10;100.00;100638.19;5052607;28;20039;-35
2022/10/15 05:19:28;;;;;;;33.57;25.97;;;;;;;12.10;100.00;100636.31;5052509;28;20033;-35
2022/10/15 05:21:54;;;;;;;31.20;24.50;;;;;;;12.12;100.00;100644.19;5052534;28;20323;-35
2022/10/15 05:24:19;;;;;;;28.67;24.27;;;;;;;12.13;100.00;100639.59;5052522;28;20424;-35
2022/10/15 05:26:44;;;;;;;28.23;23.20;;;;;;;12.13;100.00;100640.41;5052769;28;20029;-35
2022/10/15 05:29:10;;;;;;;31.60;24.73;;;;;;;12.14;100.00;100647.47;5052259;28;20029;-35
2022/10/15 05:31:35;;;;;;;30.95;23.65;;;;;;;12.14;100.00;100643.94;5052502;28;20040;-35
2022/10/15 05:34:06;;;;;;;26.53;22.47;;;;;;;12.16;100.00;100644.53;5052536;28;20036;-35
2022/10/15 05:36:31;;;;;;;28.52;23.35;;;;;;;12.16;100.00;100645.34;5052142;28;20040;-35
2022/10/15 05:39:01;;;;;;;28.00;22.37;;;;;;;12.13;100.00;100642.31;5052693;28;20029;-35
2022/10/15 05:41:28;;;;;;;27.27;22.63;;;;;;;12.14;100.00;100636.63;5052269;28;20631;-35
2022/10/15 05:43:55;;;;;;;25.98;22.00;;;;;;;12.15;100.00;100637.44;5052648;28;20055;-35
2022/10/15 05:46:21;;;;;;;28.83;22.65;;;;;;;12.16;100.00;100639.13;5052312;28;20120;-35
2022/10/15 05:48:50;;;;;;;26.70;21.88;;;;;;;12.18;100.00;100645.09;5052951;28;20115;-35
2022/10/15 05:51:16;;;;;;;26.98;21.83;;;;;;;12.18;100.00;100642.38;5052233;28;20330;-35
2022/10/15 05:53:42;;;;;;;27.23;21.90;;;;;;;12.16;100.00;100639.13;5052187;28;20048;-35
2022/10/15 05:56:08;;;;;;;27.50;22.88;;;;;;;12.20;100.00;100641.09;5052060;28;20467;-35
2022/10/15 05:58:35;;;;;;;31.95;23.17;;;;;;;12.14;100.00;100630.38;5052604;28;20071;-35
2022/10/15 06:01:03;;;;;;;26.25;22.88;;;;;;;12.20;100.00;100641.09;5056374;28;20143;-35
2022/10/15 06:03:29;;;;;;;28.20;22.77;;;;;;;12.20;100.00;100643.78;5056335;28;20029;-35
2022/10/15 06:05:54;;;;;;;;;;;;;;;12.23;100.00;100640.56;5056444;28;20370;-35
2022/10/15 06:08:20;;;;;;;26.83;22.20;;;;;;;12.16;100.00;100639.94;5056234;28;19915;-35
2022/10/15 06:10:46;;;;;;;26.67;21.65;;;;;;;12.18;100.00;100651.34;5055629;28;20759;-35
2022/10/15 06:13:12;;;;;;;24.20;20.90;;;;;;;12.13;100.00;100637.69;5056130;28;20036;-35
2022/10/15 06:15:42;;;;;;;24.20;20.48;;;;;;;12.16;100.00;100636.41;5056335;28;20021;-35
2022/10/15 06:18:08;;;;;;;26.17;21.33;;;;;;;12.20;100.00;100645.66;5056051;28;20056;-35
2022/10/15 06:20:34;;;;;;;27.35;22.52;;;;;;;12.07;100.00;100620.53;5038138;28;20087;-35
2022/10/15 06:23:00;;;;;;;26.17;22.13;;;;;;;12.17;100.00;100638.03;5056391;28;20412;-35
2022/10/15 06:25:26;;;;;;;;;;;;;;;12.23;100.00;100640.56;5056061;28;20032;-35
2022/10/15 06:27:51;;;;;;;25.27;21.33;;;;;;;12.21;100.00;100645.44;5055774;28;20277;-35
2022/10/15 06:30:17;;;;;;;29.13;21.50;;;;;;;12.22;100.00;100644.34;5055574;28;20411;-35
2022/10/15 06:32:52;;;;;;;27.00;22.23;;;;;;;12.23;100.00;100637.03;5055233;28;20465;-35
2022/10/15 06:35:19;;;;;;;24.83;21.15;;;;;;;12.26;100.00;100650.13;5055891;28;20115;-35
2022/10/15 06:37:45;;;;;;;29.17;22.95;;;;;;;12.27;100.00;100636.31;5055540;28;20026;-35
2022/10/15 06:40:11;;;;;;;27.67;21.73;;;;;;;12.28;100.00;100640.66;5055410;28;20032;-35
2022/10/15 06:42:36;;;;;;;29.13;22.33;;;;;;;12.30;100.00;100640.44;5055674;28;20143;-35
2022/10/15 06:45:02;;;;;;;27.08;22.90;;;;;;;12.29;100.00;100639.56;5055303;28;20107;-35
2022/10/15 06:47:28;;;;;;;26.65;22.30;;;;;;;12.32;100.00;100641.81;5054185;28;20025;-35
2022/10/15 06:49:53;;;;;;;27.85;23.35;;;;;;;12.32;100.00;100641.00;5048211;28;20029;-35
2022/10/15 06:52:19;;;;;;;28.90;23.13;;;;;;;12.33;100.00;100638.03;5055790;28;20330;-35
2022/10/15 06:54:45;;;;;;;;;;;;;;;12.38;100.00;100634.56;5055420;28;20032;-35
2022/10/15 06:57:10;;;;;;;32.22;25.73;;;;;;;12.33;100.00;100646.16;5055356;28;19963;-35
2022/10/15 06:59:35;;;;;;;28.30;24.37;;;;;;;12.34;100.00;100642.38;5054723;28;20443;-35
2022/10/15 07:02:00;;;;;;;33.50;26.03;;;;;;;12.35;100.00;100651.34;5055504;28;20031;-35
2022/10/15 07:04:26;;;;;;;30.97;25.23;;;;;;;12.37;100.00;100646.50;5054921;28;20032;-35
2022/10/15 07:06:51;;;;;;;33.30;26.17;;;;;;;12.38;100.00;100638.09;5054744;28;20029;-35
2022/10/15 07:09:16;;;;;;;31.80;26.70;;;;;;;12.35;100.00;100629.66;5055156;28;20028;-35
2022/10/15 07:11:42;;;;;;;36.70;26.93;;;;;;;12.43;100.00;100639.25;5053364;28;20275;-35
2022/10/15 07:14:07;;;;;;;35.83;28.43;;;;;;;12.46;100.00;100636.06;5055122;28;20032;-35
2022/10/15 07:16:33;;;;;;;30.13;26.45;;;;;;;12.47;100.00;100643.94;5055027;28;20029;-35
2022/10/15 07:18:58;;;;;;;30.77;26.17;;;;;;;12.50;100.00;100648.88;5055340;28;20412;-35
2022/10/15 07:21:23;;;;;;;29.73;25.77;;;;;;;12.49;100.00;100651.81;5054574;28;20500;-35
2022/10/15 07:23:49;;;;;;;27.77;24.00;;;;;;;12.47;100.00;100643.94;5054542;28;20037;-35
2022/10/15 07:26:14;;;;;;;31.85;24.80;;;;;;;12.47;100.00;100656.66;5054668;28;20033;-35
2022/10/15 07:28:39;;;;;;;30.70;24.70;;;;;;;12.50;100.00;100640.72;5054578;28;20036;-35
2022/10/15 07:31:06;;;;;;;27.80;23.20;;;;;;;12.50;100.00;100624.47;5054678;28;20543;-35
2022/10/15 07:33:33;;;;;;;27.92;23.85;;;;;;;12.62;100.00;100627.88;5054617;28;20028;-35
2022/10/15 07:36:05;;;;;;;25.23;22.23;;;;;;;12.67;100.00;100627.13;5054008;28;20029;-35
2022/10/15 07:38:30;;;;;;;23.58;21.08;;;;;;;12.73;100.00;100622.59;5054797;28;20025;-35
2022/10/15 07:41:00;;;;;;;25.52;20.65;;;;;;;12.77;100.00;100619.13;5053964;28;20095;-35
2022/10/15 07:43:25;;;;;;;22.60;19.83;;;;;;;12.79;100.00;100616.19;5054326;28;20091;-35
2022/10/15 07:45:51;;;;;;;21.58;19.02;;;;;;;12.80;100.00;100612.38;5054174;28;20442;-35
2022/10/15 07:48:16;;;;;;;22.50;18.17;;;;;;;12.78;100.00;100618.03;5054590;28;20060;-35
2022/10/15 07:50:41;;;;;;;21.48;17.80;;;;;;;12.81;100.00;100617.56;5053922;28;20357;-35
2022/10/15 07:53:07;;;;;;;21.38;17.73;;;;;;;12.84;100.00;100608.94;5054488;28;20071;-35
2022/10/15 07:55:33;;;;;;;17.92;16.02;;;;;;;12.89;100.00;100617.13;5053776;28;20025;-35
2022/10/15 07:57:58;;;;;;;18.80;16.65;;;;;;;12.97;100.00;100602.28;5054398;28;20053;-35
2022/10/15 08:00:24;;;;;;;19.37;17.27;;;;;;;13.07;100.00;100604.31;5053609;28;20032;-35
2022/10/15 08:02:49;;;;;;;18.13;16.23;;;;;;;13.09;100.00;100592.13;5053984;28;20441;-35
2022/10/15 08:05:14;;;;;;;17.97;15.63;;;;;;;13.14;100.00;100602.22;5054097;28;20040;-35
2022/10/15 08:07:40;;;;;;;18.80;16.23;;;;;;;13.11;100.00;100600.81;5054264;28;20032;-35
2022/10/15 08:10:07;;;;;;;16.77;14.43;;;;;;;13.12;100.00;100604.38;5054036;28;20180;-35
2022/10/15 08:12:32;;;;;;;17.05;15.25;;;;;;;13.10;100.00;100598.38;5054113;28;20031;-35
2022/10/15 08:14:58;;;;;;;15.88;14.30;;;;;;;13.10;100.00;100598.38;5053501;28;20120;-35
2022/10/15 08:17:23;;;;;;;16.57;14.73;;;;;;;13.12;100.00;100599.75;5053202;28;20037;-35
2022/10/15 08:19:49;;;;;;;18.35;15.50;;;;;;;13.09;100.00;100578.56;5053461;28;20344;-35
2022/10/15 08:22:14;;;;;;;19.08;15.07;;;;;;;13.20;100.00;100589.53;5052881;28;20465;-35
2022/10/15 08:24:39;;;;;;;16.53;13.47;;;;;;;13.28;100.00;100594.56;5053662;28;20051;-35
2022/10/15 08:27:04;;;;;;;16.27;14.27;;;;;;;13.32;100.00;100590.22;5053265;28;20021;-35
2022/10/15 08:29:30;;;;;;;15.13;13.60;;;;;;;13.35;100.00;100587.81;5053362;28;20032;-35
2022/10/15 08:31:55;;;;;;;14.30;12.90;;;;;;;13.40;100.00;100596.03;5053792;28;20256;-35
2022/10/15 08:34:20;;;;;;;13.27;11.87;;;;;;;13.42;100.00;100592.22;5053111;28;20025;-35
2022/10/15 08:36:46;;;;;;;14.77;13.17;;;;;;;13.51;100.00;100591.50;5053450;28;20255;-35
2022/10/15 08:39:11;;;;;;;13.00;11.70;;;;;;;13.53;100.00;100585.84;5053417;28;20033;-35
2022/10/15 08:41:41;;;;;;;12.98;11.32;;;;;;;13.54;100.00;100582.84;5053128;28;20179;-35
2022/10/15 08:44:56;;;;;;;12.65;11.35;;;;;;;13.59;100.00;100577.47;5053360;28;20029;-35
2022/10/15 08:47:44;;;;;;;10.65;9.55;;;;;;;13.60;100.00;100570.97;4968484;28;20412;-35
2022/10/15 08:50:37;;;;;;;13.00;10.23;;;;;;;13.64;100.00;100574.00;4972320;28;20039;-35
2022/10/15 08:53:03;;;;;;;12.40;9.80;;;;;;;13.67;100.00;100572.66;4971875;28;20034;-35
2022/10/15 08:55:35;;;;;;;9.15;8.13;;;;;;;13.57;100.00;100560.63;4972281;28;20158;-35
2022/10/15 08:58:24;;;;;;;9.02;8.13;;;;;;;13.74;100.00;100567.81;4972210;28;20108;-34
2022/10/15 09:00:57;;;;;;;7.53;6.68;;;;;;;13.78;100.00;100560.81;4971926;28;20038;-35
2022/10/15 09:03:32;;;;;;;8.25;7.05;;;;;;;13.85;100.00;100561.38;4971908;28;20035;-35
2022/10/15 09:06:16;;;;;;;8.50;7.22;;;;;;;13.83;100.00;100539.09;4971855;28;20030;-35
2022/10/15 09:08:50;;;;;;;8.60;6.70;;;;;;;13.92;100.00;100548.41;4971843;28;20499;-35
2022/10/15 09:11:20;;;;;;;7.45;6.75;;;;;;;13.94;100.00;100550.88;4971923;28;20560;-35
2022/10/15 09:13:47;;;;;;;7.15;6.43;;;;;;;13.90;100.00;100528.81;4972301;28;20049;-35
2022/10/15 09:16:16;;;;;;;7.88;6.53;;;;;;;13.94;100.00;100540.81;4971613;28;20045;-35
2022/10/15 09:18:46;;;;;;;8.45;6.60;;;;;;;13.94;100.00;100534.56;4972186;28;20038;-35
2022/10/15 09:21:14;;;;;;;9.85;6.40;;;;;;;13.95;100.00;100533.47;4971526;28;20030;-35
2022/10/15 09:23:42;;;;;;;7.75;6.78;;;;;;;13.90;100.00;100528.81;5018815;28;20485;-35
2022/10/15 09:26:10;;;;;;;7.57;6.22;;;;;;;13.93;100.00;100536.47;5052726;28;20071;-35
2022/10/15 09:28:45;;;;;;;7.30;6.53;;;;;;;13.97;100.00;100534.03;5052582;28;20119;-35
2022/10/15 09:31:13;;;;;;;7.72;6.93;;;;;;;13.89;100.00;100519.03;5052734;28;20055;-35
2022/10/15 09:33:45;;;;;;;8.40;7.07;;;;;;;13.95;100.00;100536.19;5053069;28;20103;-35
2022/10/15 09:36:32;;;;;;;9.05;7.00;;;;;;;13.96;100.00;100538.66;5057083;28;20136;-35
2022/10/15 09:39:03;;;;;;;;;;;;;;;14.01;100.00;100532.44;5057328;28;20079;-35
2022/10/15 09:41:37;;;;;;;6.93;6.22;;;;;;;13.97;100.00;100526.69;5056390;28;19912;-35
2022/10/15 09:44:09;;;;;;;7.80;7.00;;;;;;;13.98;100.00;100524.81;5057097;28;20079;-35
2022/10/15 09:46:46;;;;;;;8.02;7.10;;;;;;;13.98;100.00;100524.81;5056706;28;20029;-35
2022/10/15 09:49:20;;;;;;;10.73;7.57;;;;;;;13.90;100.00;100502.44;5056956;28;20032;-35
2022/10/15 09:52:00;;;;;;;9.38;8.38;;;;;;;13.98;100.00;100519.38;5056374;28;20036;-35
2022/10/15 09:54:48;;;;;;;12.30;9.40;;;;;;;14.00;100.00;100517.19;5056441;28;20029;-35
2022/10/15 09:57:16;;;;;;;12.00;10.18;;;;;;;13.97;100.00;100518.56;4975109;28;20152;-35
2022/10/15 10:00:01;;;;;;;11.50;9.60;;;;;;;13.96;100.00;100511.47;4992201;28;20054;-35
2022/10/15 10:02:27;;;;;;;10.70;9.00;;;;;;;13.97;100.00;100502.25;4959524;28;20349;-35
2022/10/15 10:04:53;;;;;;;10.32;9.13;;;;;;;13.95;100.00;100498.94;4975028;28;20531;-35
2022/10/15 10:07:33;;;;;;;10.88;9.35;;;;;;;13.85;100.00;100485.28;4975403;28;20153;-35
2022/10/15 10:10:02;;;;;;;8.98;7.95;;;;;;;13.89;100.00;100489.94;4975435;28;20242;-35
2022/10/15 10:12:32;;;;;;;10.50;7.60;;;;;;;13.96;100.00;100500.59;4975109;28;20098;-35
2022/10/15 10:15:01;;;;;;;9.18;7.20;;;;;;;13.96;100.00;100492.44;4975397;28;20035;-35
2022/10/15 10:17:28;;;;;;;10.90;7.03;;;;;;;14.00;100.00;100498.97;4975409;28;20070;-35
2022/10/15 10:20:08;;;;;;;9.02;7.03;;;;;;;14.04;100.00;100493.84;4974834;28;20110;-35
2022/10/15 10:22:44;;;;;;;9.52;6.78;;;;;;;14.01;100.00;100487.03;4987778;28;20077;-35
2022/10/15 10:25:28;;;;;;;9.00;6.80;;;;;;;14.09;100.00;100499.31;4994784;28;20579;-35
2022/10/15 10:28:15;;;;;;;7.30;5.78;;;;;;;14.11;100.00;100503.41;4994318;28;20054;-35
2022/10/15 10:31:08;;;;;;;7.05;5.40;;;;;;;14.13;100.00;100501.25;4945020;29;20130;-35
2022/10/15 10:33:42;;;;;;;6.82;5.07;;;;;;;14.09;100.00;100491.16;4961045;28;20189;-35
2022/10/15 10:36:20;;;;;;;6.97;5.38;;;;;;;14.14;100.00;100497.44;5014213;28;20042;-35
2022/10/15 10:39:12;;;;;;;6.35;4.85;;;;;;;14.17;100.00;100486.03;5013991;28;20040;-35
2022/10/15 10:41:54;;;;;;;6.88;4.97;;;;;;;14.27;100.00;100508.94;5013739;28;20093;-35
2022/10/15 10:44:26;;;;;;;6.22;4.53;;;;;;;14.28;100.00;100502.41;5013742;28;20093;-35
2022/10/15 10:47:06;;;;;;;5.68;3.58;;;;;;;14.32;100.00;100503.53;5013445;28;20030;-35
2022/10/15 10:49:34;;;;;;;4.43;3.47;;;;;;;14.30;100.00;100494.81;5013509;28;20165;-35
2022/10/15 10:52:00;;;;;;;4.43;3.15;;;;;;;14.30;100.00;100487.47;5013155;28;20026;-35
2022/10/15 10:54:25;;;;;;;;;;;;;;;14.39;100.00;100498.66;5013592;28;20048;-35
2022/10/15 10:56:52;;;;;;;4.80;2.88;;;;;;;14.42;100.00;100503.56;5012940;28;19924;-35
2022/10/15 10:59:39;;;;;;;3.42;2.20;;;;;;;14.47;100.00;100495.44;5013783;28;20125;-35
2022/10/15 11:02:11;;;;;;;2.33;2.00;;;;;;;14.46;100.00;100488.38;5013655;28;20046;-35
2022/10/15 11:04:38;;;;;;;3.05;2.45;;;;;;;14.51;100.00;100493.88;5014485;28;20029;-35
2022/10/15 11:07:07;;;;;;;2.70;2.20;;;;;;;14.55;100.00;100481.38;5022159;28;20041;-35
2022/10/15 11:09:51;;;;;;;4.97;2.17;;;;;;;14.60;100.00;100484.13;5054741;28;20485;-35
2022/10/15 11:12:26;;;;;;;4.05;2.28;;;;;;;14.65;100.00;100484.13;5054637;28;20033;-35
2022/10/15 11:15:15;;;;;;;4.05;2.30;;;;;;;14.70;100.00;100477.06;5054878;28;20036;-35
2022/10/15 11:17:43;;;;;;;4.03;2.30;;;;;;;14.70;100.00;100464.28;5055469;28;20116;-35